Kirksville, MO

2:15 PM CDT on March 30, 2017 (GMT -0500)
Kirksville Regional | | Change Station
Active Advisory: Special Statement

Elev 965 ft 40.09 °N, 92.54 °W | Updated 20 minutes ago

Light Rain
Light Rain Mist
48 °F
Feels Like 48 °F
N
9
Wind Variable Wind from NNE

Today
High -- | Low -- °F
--% Chance of Precip.
Yesterday
High -- | Low -- °F
Precip. -- in
Pressure 29.59 in
Visibility 6.0 miles
Clouds Overcast 400 ft
Dew Point 48 °F
Humidity 100%
Rainfall 0.21 in
Snow Depth Not available.
6:56 AM 7:32 PM
Waxing Crescent, 10% visible
METAR KIRK 301855Z AUTO 02008KT 6SM -RA BR OVC004 09/09 A2957 RMK AO2 SLP019 P0009 T00890089 $
Pressure 29.59 in
Visibility 6.0 miles
Clouds Overcast 400 ft
Dew Point 48 °F
Humidity 100%
Rainfall 0.21 in
Snow Depth Not available.
6:56 AM 7:32 PM
Waxing Crescent, 10% visible
METAR KIRK 301855Z AUTO 02008KT 6SM -RA BR OVC004 09/09 A2957 RMK AO2 SLP019 P0009 T00890089 $

Get Your Daily Forecast Email!

Thanks for signing up!

Be on the lookout for a verification email in your inbox.

You'll start receiving severe weather alerts in your inbox..

×

10-Day Weather Forecast

Almanac

Astronomy

Mar. 30, 2017 Rise Set
Actual Time
Civil Twilight
Nautical Twilight
Astronomical Twilight
Moon
Length of Visible Light
Length of Day
Tomorrow will be .
, % of the Moon is Illuminated

Today's Extremes

State Highs State Lows

Community

WunderPhotos

Upload Photos

1,962,540 photos uploaded!

WunderBlog® & News

Nearby

Air Quality

  Air Quality AQ Index Pollutant
Not available.

Snow Depth

Station Depth Elevation

Earthquake Activity

City Distance Mag. Time & Date
Minimum magnitude displayed is 2.5.

Earthquake Activity

City Distance Mag. Time & Date
Minimum magnitude displayed is 2.5.

Coastal Water Temperatures

Place Temperature

Stations

Nearby Weather Stations

Station Location Temp. Windchill Dew Point Humidity Wind Precip. Elev Updated Type
                   

Watches & Warnings

Special Statement
Issued: 1:54 PM CDT Mar. 30, 2017 – National Weather Service

... Funnel clouds sighted over the area...

There have been several sightings of funnel clouds through the
Kansas City area. Atmospheric conditions exist that favor the
possible formation of weak circulations on a pre-existing
boundary that extends from the Kansas City area into northeastern
Missouri. Some of these circulations are occurring underneath
developing showers, where a funnel cloud may develop. Once the
rain begins, The Funnel cloud usually dissipates.

Low hanging clouds can also appear to dip up and down at times,
but they will not show signs of any rapid rotation. An actual
funnel cloud will exhibit spinning in a counter-clockwise direction.

In rare instances these funnels may briefly touchdown. Stay alert
and be prepared to move to a safe shelter if a funnel cloud
approaches the ground.


Wfoeax